• Join FlightAware (Why Join?)
  • Login
  • US Flag 
11:55PM EDT


 

Airport Tracker/Info


-or-


 

Live Flight TrackerFlight Track Log ✈ LOF3416 ✈ 26-Apr-2013 ✈ KIAD - KDAY

Flight Track Log - Related Links

Times and Time Zones

All times are in EDT time to prevent confusion due to time zone crossing. See the LOF3416 flight status page for this flight to view local times or setup timezone preferences in your user account.

Time Position Orientation Groundspeed Altitude Reporting Facility
EDT Latitude Longitude Course Direction KTS MPH feet Rate Location/Type
10:23PM 38.9333 -77.5500 270° West 184 212 3,000  Level Potomac TRACON
10:24PM 38.9333 -77.6167 270° West 225 259 4,700 1,920 Climbing Potomac TRACON
10:25PM 38.9000 -77.7000 243° Southwest 245 282 6,900 2,100 Climbing Potomac TRACON
10:26PM 38.8942 -77.7414 260° West 246 283 7,700 1,920 Climbing Washington Center
10:27PM 38.9161 -77.8033 294° West 238 274 9,700 1,920 Climbing Washington Center
10:28PM 38.9711 -77.8692 317° Northwest 244 281 11,700 1,500 Climbing Washington Center
10:29PM 38.9500 -78.2341 270° West  Level FlightAware Approximate
10:29PM 38.9775 -77.9628 275° West 257 296 12,700  Level Washington Center
10:30PM 38.9714 -78.0694 266° West 280 322 14,200 1,320 Climbing Washington Center
10:31PM 38.9628 -78.1786 264° West 293 337 15,400 1,200 Climbing Washington Center
10:32PM 38.9622 -78.2906 270° West 310 357 16,600 1,260 Climbing Washington Center
10:33PM 38.9661 -78.4003 273° West 310 357 18,000 1,200 Climbing Washington Center
10:34PM 38.9697 -78.5097 272° West 310 357 19,100 1,380 Climbing Washington Center
10:35PM 38.9733 -78.6222 272° West 310 357 20,900 1,560 Climbing Washington Center
10:36PM 38.9769 -78.7264 273° West 310 357 22,300 1,380 Climbing Washington Center
10:37PM 38.9803 -78.8281 272° West 305 351 23,800 1,260 Climbing Washington Center
10:38PM 38.9839 -78.9297 273° West 300 345 24,900 1,020 Climbing Washington Center
10:39PM 38.9869 -79.0367 272° West 295 339 25,900 960 Climbing Washington Center
10:40PM 38.9903 -79.1464 272° West 300 345 26,900 960 Climbing Washington Center
10:41PM 38.9911 -79.2558 271° West 305 351 27,900 540 Climbing Washington Center
10:42PM 38.9917 -79.3681 270° West 310 357 28,000  Climbing Washington Center
10:43PM 38.9983 -79.4914 274° West 331 381 28,000  Level Washington Center
10:44PM 38.9978 -79.6275 270° West 360 414 28,000  Level Washington Center
10:45PM 39.0017 -79.7586 272° West 374 430 28,000  Level Washington Center
10:46PM 39.0033 -79.8897 271° West 374 430 28,000  Level Washington Center
10:47PM 39.0047 -80.1019 271° West 371 427 28,000  Level Indianapolis Center
10:48PM 39.0072 -80.2333 271° West 369 425 28,000  Level Indianapolis Center
10:49PM 39.0103 -80.3939 271° West 374 430 28,000  Level Indianapolis Center
10:50PM 39.0206 -80.5236 276° West 371 427 28,000  Level Indianapolis Center
10:51PM 39.0389 -80.6528 280° West 367 422 28,000  Level Indianapolis Center
10:52PM 39.0578 -80.7817 281° West 366 421 28,000  Level Indianapolis Center
10:53PM 39.0756 -80.9089 280° West 365 420 28,000  Level Indianapolis Center
10:54PM 39.0933 -81.0367 280° West 365 420 28,000  Level Indianapolis Center
10:55PM 39.1108 -81.1650 280° West 366 421 28,000  Level Indianapolis Center
10:56PM 39.1269 -81.2914 279° West 360 414 28,000  Level Indianapolis Center
10:57PM 39.1444 -81.4181 280° West 362 417 28,000  Level Indianapolis Center
10:58PM 39.1614 -81.5444 280° West 362 417 28,000 -120 Level Indianapolis Center
11:00PM 39.1806 -81.6967 279° West 361 415 27,800 -900 Descending Indianapolis Center
11:01PM 39.1975 -81.8231 280° West 361 415 26,200 -1,560 Descending Indianapolis Center
11:02PM 39.2144 -81.9550 279° West 368 423 24,700 -1,500 Descending Indianapolis Center
11:03PM 39.2322 -82.0967 279° West 393 452 23,200 -1,500 Descending Indianapolis Center
11:04PM 39.2500 -82.2353 279° West 393 452 21,700 -1,380 Descending Indianapolis Center
11:05PM 39.2664 -82.3700 279° West 385 443 20,400 -1,380 Descending Indianapolis Center
11:06PM 39.2847 -82.5144 279° West 377 434 19,000 -1,320 Descending Indianapolis Center
11:07PM 39.3022 -82.6494 280° West 377 434 17,800 -1,080 Descending Indianapolis Center
11:08PM 39.3172 -82.7842 278° West 376 433 16,900 -1,080 Descending Indianapolis Center
11:09PM 39.3328 -82.9153 279° West 369 425 15,700 -1,260 Descending Indianapolis Center
11:10PM 39.3481 -83.0472 279° West 368 423 14,400 -1,200 Descending Indianapolis Center
11:10PM 39.3572 -83.1311 278° West 368 423 13,800 -1,140 Descending Indianapolis Center
11:11PM 39.3642 -83.1794 281° West 367 422 13,300 -1,200 Descending Indianapolis Center
11:11PM 39.3758 -83.2817 278° West 361 415 12,500 -1,020 Descending Indianapolis Center
11:12PM 39.3792 -83.3097 279° West 363 418 12,300 -1,020 Descending Indianapolis Center
11:12PM 39.3900 -83.4075 278° West 356 410 11,500 -1,140 Descending Indianapolis Center
11:13PM 39.4019 -83.4347 300° West 365 420 11,200 -720 Descending Indianapolis Center
11:13PM 39.4633 -83.4947 323° Northwest 367 422 10,800 -720 Descending Indianapolis Center
11:14PM 39.4831 -83.5125 325° Northwest 363 418 10,500 -840 Descending Indianapolis Center
11:14PM 39.5417 -83.5664 325° Northwest 353 406 10,000 -600 Descending Indianapolis Center
11:15PM 39.5625 -83.5861 324° Northwest 352 405 9,900  Descending Indianapolis Center
11:15PM 39.6181 -83.6381 324° Northwest 341 392 10,000  Climbing Indianapolis Center
11:16PM 39.6408 -83.6594 324° Northwest 343 395 9,900  Descending Indianapolis Center
11:16PM 39.6944 -83.7100 324° Northwest 343 395 10,000  Climbing Indianapolis Center
11:17PM 39.7197 -83.7317 327° Northwest 341 392 9,900 -780 Descending Indianapolis Center
11:17PM 39.7572 -83.7667 324° Northwest 287 330 9,300 -1,500 Descending Indianapolis Center
11:18PM 39.7831 -83.7917 323° Northwest 279 321 8,400 -2,220 Descending Indianapolis Center
11:18PM 39.8181 -83.8233 325° Northwest 268 308 7,100 -2,280 Descending Indianapolis Center
11:19PM 39.8403 -83.8542 313° West 275 316 6,100 -2,100 Descending Indianapolis Center
11:19PM 39.8608 -83.8914 306° West 268 308 5,200 -1,920 Descending Indianapolis Center
11:20PM 39.8831 -83.9306 306° West 264 304 4,200 -1,320 Descending Indianapolis Center
11:20PM 39.9017 -83.9617 308° West 247 284 3,900 -420 Descending Indianapolis Center
11:21PM 39.9256 -84.0017 308° West 254 292 3,800 -360 Descending Indianapolis Center
11:22PM 39.9494 -84.0497 303° West 234 269 3,500 -540 Descending Indianapolis Center
11:22PM 39.9594 -84.0753 297° West 243 280 3,300 -600 Descending Indianapolis Center